sensor_id;sensor_type;location;lat;lon;timestamp;temperature;humidity
37702;DHT22;23548;51.196;6.838;2022-12-05T00:00:07;3.90;99.90
37702;DHT22;23548;51.196;6.838;2022-12-05T00:02:33;3.90;99.90
37702;DHT22;23548;51.196;6.838;2022-12-05T00:04:59;3.80;99.90
37702;DHT22;23548;51.196;6.838;2022-12-05T00:07:25;3.70;99.90
37702;DHT22;23548;51.196;6.838;2022-12-05T00:09:51;3.80;99.90
37702;DHT22;23548;51.196;6.838;2022-12-05T00:12:17;3.70;99.90
37702;DHT22;23548;51.196;6.838;2022-12-05T00:14:42;3.70;99.90
37702;DHT22;23548;51.196;6.838;2022-12-05T00:17:08;3.80;99.90
37702;DHT22;23548;51.196;6.838;2022-12-05T00:19:34;3.90;99.90
37702;DHT22;23548;51.196;6.838;2022-12-05T00:21:59;3.90;99.90
37702;DHT22;23548;51.196;6.838;2022-12-05T00:24:25;3.90;99.90
37702;DHT22;23548;51.196;6.838;2022-12-05T00:26:51;3.90;99.90
37702;DHT22;23548;51.196;6.838;2022-12-05T00:29:17;3.70;99.90
37702;DHT22;23548;51.196;6.838;2022-12-05T00:31:42;3.60;99.90
37702;DHT22;23548;51.196;6.838;2022-12-05T00:34:08;3.70;99.90
37702;DHT22;23548;51.196;6.838;2022-12-05T00:36:35;3.80;99.90
37702;DHT22;23548;51.196;6.838;2022-12-05T00:39:04;3.80;99.90
37702;DHT22;23548;51.196;6.838;2022-12-05T00:41:32;3.90;99.90
37702;DHT22;23548;51.196;6.838;2022-12-05T00:43:59;3.80;99.90
37702;DHT22;23548;51.196;6.838;2022-12-05T00:46:27;3.60;99.90
37702;DHT22;23548;51.196;6.838;2022-12-05T00:48:54;3.60;99.90
37702;DHT22;23548;51.196;6.838;2022-12-05T00:51:29;3.70;99.90
37702;DHT22;23548;51.196;6.838;2022-12-05T00:54:00;3.70;99.90
37702;DHT22;23548;51.196;6.838;2022-12-05T00:56:28;3.60;99.90
37702;DHT22;23548;51.196;6.838;2022-12-05T00:58:55;3.50;99.90
37702;DHT22;23548;51.196;6.838;2022-12-05T01:01:33;3.70;99.90
37702;DHT22;23548;51.196;6.838;2022-12-05T01:04:09;3.80;99.90
37702;DHT22;23548;51.196;6.838;2022-12-05T01:06:35;3.80;99.90
37702;DHT22;23548;51.196;6.838;2022-12-05T01:09:01;3.70;99.90
37702;DHT22;23548;51.196;6.838;2022-12-05T01:11:27;3.60;99.90
37702;DHT22;23548;51.196;6.838;2022-12-05T01:13:53;3.50;99.90
37702;DHT22;23548;51.196;6.838;2022-12-05T01:16:24;3.50;99.90
37702;DHT22;23548;51.196;6.838;2022-12-05T01:18:51;3.60;99.90
37702;DHT22;23548;51.196;6.838;2022-12-05T01:21:17;3.60;99.90
37702;DHT22;23548;51.196;6.838;2022-12-05T01:23:43;3.60;99.90
37702;DHT22;23548;51.196;6.838;2022-12-05T01:26:11;3.60;99.90
37702;DHT22;23548;51.196;6.838;2022-12-05T01:28:37;3.50;99.90
37702;DHT22;23548;51.196;6.838;2022-12-05T01:31:09;3.60;99.90
37702;DHT22;23548;51.196;6.838;2022-12-05T01:33:37;3.70;99.90
37702;DHT22;23548;51.196;6.838;2022-12-05T01:36:02;3.50;99.90
37702;DHT22;23548;51.196;6.838;2022-12-05T01:38:28;3.50;99.90
37702;DHT22;23548;51.196;6.838;2022-12-05T01:41:05;3.40;99.90
37702;DHT22;23548;51.196;6.838;2022-12-05T01:43:31;3.50;99.90
37702;DHT22;23548;51.196;6.838;2022-12-05T01:45:57;3.50;99.90
37702;DHT22;23548;51.196;6.838;2022-12-05T01:48:32;3.50;99.90
37702;DHT22;23548;51.196;6.838;2022-12-05T01:51:00;3.50;99.90
37702;DHT22;23548;51.196;6.838;2022-12-05T01:53:27;3.60;99.90
37702;DHT22;23548;51.196;6.838;2022-12-05T01:55:54;3.60;99.90
37702;DHT22;23548;51.196;6.838;2022-12-05T01:58:20;3.60;99.90
37702;DHT22;23548;51.196;6.838;2022-12-05T02:00:47;3.70;99.90
37702;DHT22;23548;51.196;6.838;2022-12-05T02:03:17;3.70;99.90
37702;DHT22;23548;51.196;6.838;2022-12-05T02:05:46;3.60;99.90
37702;DHT22;23548;51.196;6.838;2022-12-05T02:08:13;3.70;99.90
37702;DHT22;23548;51.196;6.838;2022-12-05T02:10:46;3.70;99.90
37702;DHT22;23548;51.196;6.838;2022-12-05T02:19:03;3.70;99.90
37702;DHT22;23548;51.196;6.838;2022-12-05T02:38:44;3.80;99.90
37702;DHT22;23548;51.196;6.838;2022-12-05T02:41:15;3.90;99.90
37702;DHT22;23548;51.196;6.838;2022-12-05T02:43:53;3.80;99.90
37702;DHT22;23548;51.196;6.838;2022-12-05T02:46:22;3.70;99.90
37702;DHT22;23548;51.196;6.838;2022-12-05T02:48:53;3.80;99.90
37702;DHT22;23548;51.196;6.838;2022-12-05T02:51:23;3.70;99.90
37702;DHT22;23548;51.196;6.838;2022-12-05T02:53:50;3.80;99.90
37702;DHT22;23548;51.196;6.838;2022-12-05T02:56:16;3.70;99.90
37702;DHT22;23548;51.196;6.838;2022-12-05T02:58:53;3.80;99.90
37702;DHT22;23548;51.196;6.838;2022-12-05T03:01:22;3.90;99.90
37702;DHT22;23548;51.196;6.838;2022-12-05T03:03:48;4.00;99.90
37702;DHT22;23548;51.196;6.838;2022-12-05T03:06:45;3.90;99.90
37702;DHT22;23548;51.196;6.838;2022-12-05T03:09:17;3.90;99.90
37702;DHT22;23548;51.196;6.838;2022-12-05T03:11:48;3.70;99.90
37702;DHT22;23548;51.196;6.838;2022-12-05T03:14:28;3.70;99.90
37702;DHT22;23548;51.196;6.838;2022-12-05T03:17:00;3.70;99.90
37702;DHT22;23548;51.196;6.838;2022-12-05T03:19:31;3.70;99.90
37702;DHT22;23548;51.196;6.838;2022-12-05T03:22:55;3.60;99.90
37702;DHT22;23548;51.196;6.838;2022-12-05T03:25:02;3.60;99.90
37702;DHT22;23548;51.196;6.838;2022-12-05T03:30:18;3.60;99.90
37702;DHT22;23548;51.196;6.838;2022-12-05T03:33:01;3.70;99.90
37702;DHT22;23548;51.196;6.838;2022-12-05T03:35:42;3.60;99.90
37702;DHT22;23548;51.196;6.838;2022-12-05T03:38:15;3.60;99.90
37702;DHT22;23548;51.196;6.838;2022-12-05T03:48:33;3.70;99.90
37702;DHT22;23548;51.196;6.838;2022-12-05T03:51:01;3.60;99.90
37702;DHT22;23548;51.196;6.838;2022-12-05T03:53:36;3.60;99.90
37702;DHT22;23548;51.196;6.838;2022-12-05T03:56:08;3.50;99.90
37702;DHT22;23548;51.196;6.838;2022-12-05T03:58:41;3.50;99.90
37702;DHT22;23548;51.196;6.838;2022-12-05T04:01:08;3.50;99.90
37702;DHT22;23548;51.196;6.838;2022-12-05T04:03:43;3.40;99.90
37702;DHT22;23548;51.196;6.838;2022-12-05T04:06:32;3.40;99.90
37702;DHT22;23548;51.196;6.838;2022-12-05T04:09:04;3.30;99.90
37702;DHT22;23548;51.196;6.838;2022-12-05T04:11:37;3.30;99.90
37702;DHT22;23548;51.196;6.838;2022-12-05T04:14:12;3.30;99.90
37702;DHT22;23548;51.196;6.838;2022-12-05T04:16:51;3.30;99.90
37702;DHT22;23548;51.196;6.838;2022-12-05T04:22:21;3.40;99.90
37702;DHT22;23548;51.196;6.838;2022-12-05T04:24:49;3.30;99.90
37702;DHT22;23548;51.196;6.838;2022-12-05T04:30:45;3.20;99.90
37702;DHT22;23548;51.196;6.838;2022-12-05T04:33:51;3.20;99.90
37702;DHT22;23548;51.196;6.838;2022-12-05T04:36:22;3.20;99.90
37702;DHT22;23548;51.196;6.838;2022-12-05T04:41:22;3.20;99.90
37702;DHT22;23548;51.196;6.838;2022-12-05T04:43:50;3.20;99.90
37702;DHT22;23548;51.196;6.838;2022-12-05T04:46:20;3.20;99.90
37702;DHT22;23548;51.196;6.838;2022-12-05T04:48:55;3.20;99.90
37702;DHT22;23548;51.196;6.838;2022-12-05T04:51:25;3.20;99.90
37702;DHT22;23548;51.196;6.838;2022-12-05T04:53:55;3.10;99.90
37702;DHT22;23548;51.196;6.838;2022-12-05T04:56:27;3.00;99.90
37702;DHT22;23548;51.196;6.838;2022-12-05T04:58:54;3.00;99.90
37702;DHT22;23548;51.196;6.838;2022-12-05T05:01:29;3.00;99.90
37702;DHT22;23548;51.196;6.838;2022-12-05T05:04:30;3.10;99.90
37702;DHT22;23548;51.196;6.838;2022-12-05T05:06:56;3.10;99.90
37702;DHT22;23548;51.196;6.838;2022-12-05T05:09:22;3.10;99.90
37702;DHT22;23548;51.196;6.838;2022-12-05T05:11:48;3.10;99.90
37702;DHT22;23548;51.196;6.838;2022-12-05T05:14:14;3.10;99.90
37702;DHT22;23548;51.196;6.838;2022-12-05T05:16:41;3.00;99.90
37702;DHT22;23548;51.196;6.838;2022-12-05T05:19:08;3.00;99.90
37702;DHT22;23548;51.196;6.838;2022-12-05T05:21:38;2.90;99.90
37702;DHT22;23548;51.196;6.838;2022-12-05T05:24:05;2.90;99.90
37702;DHT22;23548;51.196;6.838;2022-12-05T05:26:37;2.90;99.90
37702;DHT22;23548;51.196;6.838;2022-12-05T05:29:04;2.90;99.90
37702;DHT22;23548;51.196;6.838;2022-12-05T05:31:30;2.90;99.90
37702;DHT22;23548;51.196;6.838;2022-12-05T05:33:56;2.90;99.90
37702;DHT22;23548;51.196;6.838;2022-12-05T05:36:24;2.90;99.90
37702;DHT22;23548;51.196;6.838;2022-12-05T05:38:52;2.80;99.90
37702;DHT22;23548;51.196;6.838;2022-12-05T05:41:24;2.80;99.90
37702;DHT22;23548;51.196;6.838;2022-12-05T05:43:50;2.80;99.90
37702;DHT22;23548;51.196;6.838;2022-12-05T05:46:19;2.90;99.90
37702;DHT22;23548;51.196;6.838;2022-12-05T05:48:45;2.90;99.90
37702;DHT22;23548;51.196;6.838;2022-12-05T05:51:12;3.00;99.90
37702;DHT22;23548;51.196;6.838;2022-12-05T05:53:38;3.10;99.90
37702;DHT22;23548;51.196;6.838;2022-12-05T05:56:09;3.10;99.90
37702;DHT22;23548;51.196;6.838;2022-12-05T05:58:35;3.00;99.90
37702;DHT22;23548;51.196;6.838;2022-12-05T06:01:12;2.90;99.90
37702;DHT22;23548;51.196;6.838;2022-12-05T06:03:38;2.90;99.90
37702;DHT22;23548;51.196;6.838;2022-12-05T06:06:07;2.90;99.90
37702;DHT22;23548;51.196;6.838;2022-12-05T06:08:37;2.90;99.90
37702;DHT22;23548;51.196;6.838;2022-12-05T06:11:08;3.20;99.90
37702;DHT22;23548;51.196;6.838;2022-12-05T06:13:34;3.30;99.90
37702;DHT22;23548;51.196;6.838;2022-12-05T06:16:00;3.40;99.90
37702;DHT22;23548;51.196;6.838;2022-12-05T06:18:26;3.50;99.90
37702;DHT22;23548;51.196;6.838;2022-12-05T06:20:54;3.30;99.90
37702;DHT22;23548;51.196;6.838;2022-12-05T06:23:20;3.40;99.90
37702;DHT22;23548;51.196;6.838;2022-12-05T06:25:50;3.50;99.90
37702;DHT22;23548;51.196;6.838;2022-12-05T06:28:18;3.40;99.90
37702;DHT22;23548;51.196;6.838;2022-12-05T06:30:44;3.30;99.90
37702;DHT22;23548;51.196;6.838;2022-12-05T06:33:10;3.30;99.90
37702;DHT22;23548;51.196;6.838;2022-12-05T06:35:36;3.40;99.90
37702;DHT22;23548;51.196;6.838;2022-12-05T06:38:04;3.40;99.90
37702;DHT22;23548;51.196;6.838;2022-12-05T06:40:30;3.50;99.90
37702;DHT22;23548;51.196;6.838;2022-12-05T06:42:55;3.30;99.90
37702;DHT22;23548;51.196;6.838;2022-12-05T06:45:21;3.30;99.90
37702;DHT22;23548;51.196;6.838;2022-12-05T06:47:47;3.30;99.90
37702;DHT22;23548;51.196;6.838;2022-12-05T06:50:13;3.30;99.90
37702;DHT22;23548;51.196;6.838;2022-12-05T06:52:38;3.30;99.90
37702;DHT22;23548;51.196;6.838;2022-12-05T06:55:05;3.30;99.90
37702;DHT22;23548;51.196;6.838;2022-12-05T06:57:30;3.20;99.90
37702;DHT22;23548;51.196;6.838;2022-12-05T06:59:56;3.30;99.90
37702;DHT22;23548;51.196;6.838;2022-12-05T07:02:40;3.20;99.90
37702;DHT22;23548;51.196;6.838;2022-12-05T07:05:08;3.30;99.90
37702;DHT22;23548;51.196;6.838;2022-12-05T07:07:33;3.40;99.90
37702;DHT22;23548;51.196;6.838;2022-12-05T07:09:59;3.40;99.90
37702;DHT22;23548;51.196;6.838;2022-12-05T07:12:25;3.40;99.90
37702;DHT22;23548;51.196;6.838;2022-12-05T07:14:51;3.40;99.90
37702;DHT22;23548;51.196;6.838;2022-12-05T07:17:17;3.30;99.90
37702;DHT22;23548;51.196;6.838;2022-12-05T07:19:45;3.10;99.90
37702;DHT22;23548;51.196;6.838;2022-12-05T07:22:11;3.20;99.90
37702;DHT22;23548;51.196;6.838;2022-12-05T07:24:37;3.30;99.90
37702;DHT22;23548;51.196;6.838;2022-12-05T07:27:02;3.30;99.90
37702;DHT22;23548;51.196;6.838;2022-12-05T07:29:28;3.20;99.90
37702;DHT22;23548;51.196;6.838;2022-12-05T07:31:54;3.20;99.90
37702;DHT22;23548;51.196;6.838;2022-12-05T07:34:20;3.20;99.90
37702;DHT22;23548;51.196;6.838;2022-12-05T07:36:45;3.30;99.90
37702;DHT22;23548;51.196;6.838;2022-12-05T07:39:11;3.30;99.90
37702;DHT22;23548;51.196;6.838;2022-12-05T07:41:37;3.40;99.90
37702;DHT22;23548;51.196;6.838;2022-12-05T07:44:03;3.30;99.90
37702;DHT22;23548;51.196;6.838;2022-12-05T07:46:28;3.30;99.90
37702;DHT22;23548;51.196;6.838;2022-12-05T07:48:54;3.40;99.90
37702;DHT22;23548;51.196;6.838;2022-12-05T07:51:20;3.40;99.90
37702;DHT22;23548;51.196;6.838;2022-12-05T07:53:47;3.30;99.90
37702;DHT22;23548;51.196;6.838;2022-12-05T07:56:15;3.40;99.90
37702;DHT22;23548;51.196;6.838;2022-12-05T07:58:42;3.40;99.90
37702;DHT22;23548;51.196;6.838;2022-12-05T08:01:14;3.30;99.90
37702;DHT22;23548;51.196;6.838;2022-12-05T08:03:40;3.20;99.90
37702;DHT22;23548;51.196;6.838;2022-12-05T08:06:12;3.30;99.90
37702;DHT22;23548;51.196;6.838;2022-12-05T08:08:39;3.20;99.90
37702;DHT22;23548;51.196;6.838;2022-12-05T08:11:11;3.20;99.90
37702;DHT22;23548;51.196;6.838;2022-12-05T08:13:37;3.10;99.90
37702;DHT22;23548;51.196;6.838;2022-12-05T08:16:06;3.10;99.90
37702;DHT22;23548;51.196;6.838;2022-12-05T08:18:32;3.00;99.90
37702;DHT22;23548;51.196;6.838;2022-12-05T08:21:06;3.20;99.90
37702;DHT22;23548;51.196;6.838;2022-12-05T08:23:33;3.30;99.90
37702;DHT22;23548;51.196;6.838;2022-12-05T08:26:04;3.30;99.90
37702;DHT22;23548;51.196;6.838;2022-12-05T08:28:31;3.10;99.90
37702;DHT22;23548;51.196;6.838;2022-12-05T08:31:09;3.10;99.90
37702;DHT22;23548;51.196;6.838;2022-12-05T08:33:35;3.30;99.90
37702;DHT22;23548;51.196;6.838;2022-12-05T08:36:03;3.20;99.90
37702;DHT22;23548;51.196;6.838;2022-12-05T08:38:30;3.20;99.90
37702;DHT22;23548;51.196;6.838;2022-12-05T08:40:55;3.30;99.90
37702;DHT22;23548;51.196;6.838;2022-12-05T08:43:21;3.40;99.90
37702;DHT22;23548;51.196;6.838;2022-12-05T08:45:51;3.30;99.90
37702;DHT22;23548;51.196;6.838;2022-12-05T08:48:17;3.50;99.90
37702;DHT22;23548;51.196;6.838;2022-12-05T08:50:44;3.60;99.90
37702;DHT22;23548;51.196;6.838;2022-12-05T08:53:10;3.40;99.90
37702;DHT22;23548;51.196;6.838;2022-12-05T08:55:36;3.50;99.90
37702;DHT22;23548;51.196;6.838;2022-12-05T08:58:03;3.30;99.90
37702;DHT22;23548;51.196;6.838;2022-12-05T09:00:29;3.50;99.90
37702;DHT22;23548;51.196;6.838;2022-12-05T09:02:54;3.30;99.90
37702;DHT22;23548;51.196;6.838;2022-12-05T09:05:21;3.20;99.90
37702;DHT22;23548;51.196;6.838;2022-12-05T09:07:47;3.40;99.90
37702;DHT22;23548;51.196;6.838;2022-12-05T09:10:13;3.40;99.90
37702;DHT22;23548;51.196;6.838;2022-12-05T09:12:39;3.50;99.90
37702;DHT22;23548;51.196;6.838;2022-12-05T09:15:06;3.50;99.90
37702;DHT22;23548;51.196;6.838;2022-12-05T09:17:32;3.70;99.90
37702;DHT22;23548;51.196;6.838;2022-12-05T09:19:58;3.50;99.90
37702;DHT22;23548;51.196;6.838;2022-12-05T09:22:24;3.40;99.90
37702;DHT22;23548;51.196;6.838;2022-12-05T09:24:50;3.40;99.90
37702;DHT22;23548;51.196;6.838;2022-12-05T09:27:16;3.50;99.90
37702;DHT22;23548;51.196;6.838;2022-12-05T09:29:42;3.40;99.90
37702;DHT22;23548;51.196;6.838;2022-12-05T09:32:08;3.30;99.90
37702;DHT22;23548;51.196;6.838;2022-12-05T09:34:35;3.10;99.90
37702;DHT22;23548;51.196;6.838;2022-12-05T09:37:05;3.10;99.90
37702;DHT22;23548;51.196;6.838;2022-12-05T09:39:32;3.20;99.90
37702;DHT22;23548;51.196;6.838;2022-12-05T09:45:14;3.10;99.90
37702;DHT22;23548;51.196;6.838;2022-12-05T09:50:44;3.20;99.90
37702;DHT22;23548;51.196;6.838;2022-12-05T09:56:00;3.30;99.90
37702;DHT22;23548;51.196;6.838;2022-12-05T09:58:51;3.30;99.90
37702;DHT22;23548;51.196;6.838;2022-12-05T10:09:26;4.50;99.90
37702;DHT22;23548;51.196;6.838;2022-12-05T10:12:18;4.60;99.90
37702;DHT22;23548;51.196;6.838;2022-12-05T10:18:00;4.70;99.90
37702;DHT22;23548;51.196;6.838;2022-12-05T10:20:35;4.70;99.90
37702;DHT22;23548;51.196;6.838;2022-12-05T10:23:13;4.90;99.90
37702;DHT22;23548;51.196;6.838;2022-12-05T10:25:41;4.60;99.90
37702;DHT22;23548;51.196;6.838;2022-12-05T10:28:33;4.90;99.90
37702;DHT22;23548;51.196;6.838;2022-12-05T10:31:05;5.10;99.90
37702;DHT22;23548;51.196;6.838;2022-12-05T10:33:40;5.30;99.90
37702;DHT22;23548;51.196;6.838;2022-12-05T10:36:12;5.20;99.90
37702;DHT22;23548;51.196;6.838;2022-12-05T10:38:39;5.00;99.90
37702;DHT22;23548;51.196;6.838;2022-12-05T10:41:08;5.00;99.90
37702;DHT22;23548;51.196;6.838;2022-12-05T10:43:35;4.90;99.90
37702;DHT22;23548;51.196;6.838;2022-12-05T10:46:03;5.00;99.90
37702;DHT22;23548;51.196;6.838;2022-12-05T10:48:29;5.20;99.90
37702;DHT22;23548;51.196;6.838;2022-12-05T10:50:59;4.90;99.90
37702;DHT22;23548;51.196;6.838;2022-12-05T10:53:26;4.60;99.90
37702;DHT22;23548;51.196;6.838;2022-12-05T10:55:53;4.60;99.90
37702;DHT22;23548;51.196;6.838;2022-12-05T10:58:23;4.30;99.90
37702;DHT22;23548;51.196;6.838;2022-12-05T11:00:53;4.00;99.90
37702;DHT22;23548;51.196;6.838;2022-12-05T11:03:36;3.90;99.90
37702;DHT22;23548;51.196;6.838;2022-12-05T11:06:29;3.90;99.90
37702;DHT22;23548;51.196;6.838;2022-12-05T11:09:19;3.80;99.90
37702;DHT22;23548;51.196;6.838;2022-12-05T11:12:03;4.10;99.90
37702;DHT22;23548;51.196;6.838;2022-12-05T11:14:32;4.10;99.90
37702;DHT22;23548;51.196;6.838;2022-12-05T11:17:03;4.00;99.90
37702;DHT22;23548;51.196;6.838;2022-12-05T11:21:57;4.10;99.90
37702;DHT22;23548;51.196;6.838;2022-12-05T11:24:32;4.30;99.90
37702;DHT22;23548;51.196;6.838;2022-12-05T11:27:19;4.00;99.90
37702;DHT22;23548;51.196;6.838;2022-12-05T11:32:30;3.70;99.90
37702;DHT22;23548;51.196;6.838;2022-12-05T11:37:46;3.90;99.90
37702;DHT22;23548;51.196;6.838;2022-12-05T11:49:10;3.60;99.90
37702;DHT22;23548;51.196;6.838;2022-12-05T11:51:37;3.60;99.90
37702;DHT22;23548;51.196;6.838;2022-12-05T12:10:30;4.00;99.90
37702;DHT22;23548;51.196;6.838;2022-12-05T12:13:19;4.00;99.90
37702;DHT22;23548;51.196;6.838;2022-12-05T12:23:58;4.00;99.90
37702;DHT22;23548;51.196;6.838;2022-12-05T12:40:00;4.20;99.90
37702;DHT22;23548;51.196;6.838;2022-12-05T12:42:44;4.10;99.90
37702;DHT22;23548;51.196;6.838;2022-12-05T12:45:19;4.00;99.90
37702;DHT22;23548;51.196;6.838;2022-12-05T12:50:35;4.20;99.90
37702;DHT22;23548;51.196;6.838;2022-12-05T13:03:46;4.10;99.90
37702;DHT22;23548;51.196;6.838;2022-12-05T13:06:20;4.20;99.90
37702;DHT22;23548;51.196;6.838;2022-12-05T13:09:13;4.30;99.90
37702;DHT22;23548;51.196;6.838;2022-12-05T13:11:41;4.00;99.90
37702;DHT22;23548;51.196;6.838;2022-12-05T13:14:14;3.80;99.90
37702;DHT22;23548;51.196;6.838;2022-12-05T13:16:43;3.90;99.90
37702;DHT22;23548;51.196;6.838;2022-12-05T13:19:27;4.00;99.90
37702;DHT22;23548;51.196;6.838;2022-12-05T13:21:56;4.10;99.90
37702;DHT22;23548;51.196;6.838;2022-12-05T13:24:25;3.80;99.90
37702;DHT22;23548;51.196;6.838;2022-12-05T13:26:52;4.00;99.90
37702;DHT22;23548;51.196;6.838;2022-12-05T13:29:32;3.90;99.90
37702;DHT22;23548;51.196;6.838;2022-12-05T13:32:02;3.90;99.90
37702;DHT22;23548;51.196;6.838;2022-12-05T13:36:57;3.80;99.90
37702;DHT22;23548;51.196;6.838;2022-12-05T13:39:50;3.90;99.90
37702;DHT22;23548;51.196;6.838;2022-12-05T13:42:35;3.80;99.90
37702;DHT22;23548;51.196;6.838;2022-12-05T13:45:09;3.60;99.90
37702;DHT22;23548;51.196;6.838;2022-12-05T13:50:34;3.60;99.90
37702;DHT22;23548;51.196;6.838;2022-12-05T13:56:01;3.70;99.90
37702;DHT22;23548;51.196;6.838;2022-12-05T14:04:01;3.40;99.90
37702;DHT22;23548;51.196;6.838;2022-12-05T14:09:01;3.30;99.90
37702;DHT22;23548;51.196;6.838;2022-12-05T14:11:27;3.40;99.90
37702;DHT22;23548;51.196;6.838;2022-12-05T14:13:53;3.20;99.90
37702;DHT22;23548;51.196;6.838;2022-12-05T14:18:52;3.30;99.90
37702;DHT22;23548;51.196;6.838;2022-12-05T14:26:37;3.30;99.90
37702;DHT22;23548;51.196;6.838;2022-12-05T14:29:21;3.20;99.90
37702;DHT22;23548;51.196;6.838;2022-12-05T14:37:37;3.00;99.90
37702;DHT22;23548;51.196;6.838;2022-12-05T14:40:17;3.10;99.90
37702;DHT22;23548;51.196;6.838;2022-12-05T14:43:04;3.00;99.90
37702;DHT22;23548;51.196;6.838;2022-12-05T14:45:36;3.10;99.90
37702;DHT22;23548;51.196;6.838;2022-12-05T14:48:22;3.10;99.90
37702;DHT22;23548;51.196;6.838;2022-12-05T14:50:55;3.10;99.90
37702;DHT22;23548;51.196;6.838;2022-12-05T14:53:40;3.00;99.90
37702;DHT22;23548;51.196;6.838;2022-12-05T14:56:25;3.00;99.90
37702;DHT22;23548;51.196;6.838;2022-12-05T14:59:05;2.90;99.90
37702;DHT22;23548;51.196;6.838;2022-12-05T15:01:42;2.60;99.90
37702;DHT22;23548;51.196;6.838;2022-12-05T15:04:21;2.60;99.90
37702;DHT22;23548;51.196;6.838;2022-12-05T15:07:08;2.60;99.90
37702;DHT22;23548;51.196;6.838;2022-12-05T15:09:53;2.40;99.90
37702;DHT22;23548;51.196;6.838;2022-12-05T15:12:30;2.30;99.90
37702;DHT22;23548;51.196;6.838;2022-12-05T15:15:12;2.20;99.90
37702;DHT22;23548;51.196;6.838;2022-12-05T15:18:27;2.10;99.90
37702;DHT22;23548;51.196;6.838;2022-12-05T15:20:56;2.10;99.90
37702;DHT22;23548;51.196;6.838;2022-12-05T15:23:47;2.10;99.90
37702;DHT22;23548;51.196;6.838;2022-12-05T15:31:46;2.00;99.90
37702;DHT22;23548;51.196;6.838;2022-12-05T15:37:28;2.10;99.90
37702;DHT22;23548;51.196;6.838;2022-12-05T15:47:44;2.10;99.90
37702;DHT22;23548;51.196;6.838;2022-12-05T15:50:14;2.10;99.90
37702;DHT22;23548;51.196;6.838;2022-12-05T15:52:46;2.00;99.90
37702;DHT22;23548;51.196;6.838;2022-12-05T15:58:02;2.00;99.90
37702;DHT22;23548;51.196;6.838;2022-12-05T16:00:32;1.90;99.90
37702;DHT22;23548;51.196;6.838;2022-12-05T16:03:20;1.90;99.90
37702;DHT22;23548;51.196;6.838;2022-12-05T16:08:18;1.80;99.90
37702;DHT22;23548;51.196;6.838;2022-12-05T16:10:44;1.80;99.90
37702;DHT22;23548;51.196;6.838;2022-12-05T16:13:14;1.80;99.90
37702;DHT22;23548;51.196;6.838;2022-12-05T16:15:44;1.70;99.90
37702;DHT22;23548;51.196;6.838;2022-12-05T16:18:26;1.70;99.90
37702;DHT22;23548;51.196;6.838;2022-12-05T16:20:53;1.80;99.90
37702;DHT22;23548;51.196;6.838;2022-12-05T16:23:31;1.80;99.90
37702;DHT22;23548;51.196;6.838;2022-12-05T16:26:29;1.80;99.90
37702;DHT22;23548;51.196;6.838;2022-12-05T16:29:00;1.80;99.90
37702;DHT22;23548;51.196;6.838;2022-12-05T16:31:31;1.90;99.90
37702;DHT22;23548;51.196;6.838;2022-12-05T16:34:05;1.90;99.90
37702;DHT22;23548;51.196;6.838;2022-12-05T16:36:32;1.80;99.90
37702;DHT22;23548;51.196;6.838;2022-12-05T16:39:04;1.90;99.90
37702;DHT22;23548;51.196;6.838;2022-12-05T16:41:35;1.90;99.90
37702;DHT22;23548;51.196;6.838;2022-12-05T16:44:01;1.90;99.90
37702;DHT22;23548;51.196;6.838;2022-12-05T16:49:23;1.80;99.90
37702;DHT22;23548;51.196;6.838;2022-12-05T16:54:36;1.80;99.90
37702;DHT22;23548;51.196;6.838;2022-12-05T16:57:03;1.80;99.90
37702;DHT22;23548;51.196;6.838;2022-12-05T16:59:30;1.80;99.90
37702;DHT22;23548;51.196;6.838;2022-12-05T17:01:56;2.00;99.90
37702;DHT22;23548;51.196;6.838;2022-12-05T17:04:22;2.00;99.90
37702;DHT22;23548;51.196;6.838;2022-12-05T17:06:48;2.00;99.90
37702;DHT22;23548;51.196;6.838;2022-12-05T17:09:14;2.00;99.90
37702;DHT22;23548;51.196;6.838;2022-12-05T17:11:42;1.90;99.90
37702;DHT22;23548;51.196;6.838;2022-12-05T17:14:14;1.90;99.90
37702;DHT22;23548;51.196;6.838;2022-12-05T17:16:41;1.80;99.90
37702;DHT22;23548;51.196;6.838;2022-12-05T17:19:09;1.90;99.90
37702;DHT22;23548;51.196;6.838;2022-12-05T17:21:36;2.00;99.90
37702;DHT22;23548;51.196;6.838;2022-12-05T17:24:02;2.00;99.90
37702;DHT22;23548;51.196;6.838;2022-12-05T17:26:29;2.00;99.90
37702;DHT22;23548;51.196;6.838;2022-12-05T17:28:55;1.90;99.90
37702;DHT22;23548;51.196;6.838;2022-12-05T17:31:23;1.90;99.90
37702;DHT22;23548;51.196;6.838;2022-12-05T17:33:51;1.90;99.90
37702;DHT22;23548;51.196;6.838;2022-12-05T17:36:17;1.90;99.90
37702;DHT22;23548;51.196;6.838;2022-12-05T17:38:45;1.90;99.90
37702;DHT22;23548;51.196;6.838;2022-12-05T17:41:17;1.90;99.90
37702;DHT22;23548;51.196;6.838;2022-12-05T17:43:44;1.90;99.90
37702;DHT22;23548;51.196;6.838;2022-12-05T17:46:15;1.80;99.90
37702;DHT22;23548;51.196;6.838;2022-12-05T17:48:41;1.80;99.90
37702;DHT22;23548;51.196;6.838;2022-12-05T17:51:08;1.80;99.90
37702;DHT22;23548;51.196;6.838;2022-12-05T17:53:36;1.80;99.90
37702;DHT22;23548;51.196;6.838;2022-12-05T17:56:02;1.80;99.90
37702;DHT22;23548;51.196;6.838;2022-12-05T17:58:28;1.80;99.90
37702;DHT22;23548;51.196;6.838;2022-12-05T18:00:54;1.80;99.90
37702;DHT22;23548;51.196;6.838;2022-12-05T18:03:20;1.90;99.90
37702;DHT22;23548;51.196;6.838;2022-12-05T18:05:46;1.90;99.90
37702;DHT22;23548;51.196;6.838;2022-12-05T18:08:14;1.80;99.90
37702;DHT22;23548;51.196;6.838;2022-12-05T18:10:43;1.90;99.90
37702;DHT22;23548;51.196;6.838;2022-12-05T18:13:10;1.90;99.90
37702;DHT22;23548;51.196;6.838;2022-12-05T18:15:37;1.90;99.90
37702;DHT22;23548;51.196;6.838;2022-12-05T18:18:04;2.10;99.90
37702;DHT22;23548;51.196;6.838;2022-12-05T18:20:33;2.00;99.90
37702;DHT22;23548;51.196;6.838;2022-12-05T18:23:00;2.00;99.90
37702;DHT22;23548;51.196;6.838;2022-12-05T18:25:56;2.00;99.90
37702;DHT22;23548;51.196;6.838;2022-12-05T18:28:23;2.00;99.90
37702;DHT22;23548;51.196;6.838;2022-12-05T18:31:01;1.90;99.90
37702;DHT22;23548;51.196;6.838;2022-12-05T18:33:27;2.00;99.90
37702;DHT22;23548;51.196;6.838;2022-12-05T18:35:54;2.00;99.90
37702;DHT22;23548;51.196;6.838;2022-12-05T18:38:21;1.90;99.90
37702;DHT22;23548;51.196;6.838;2022-12-05T18:40:46;1.80;99.90
37702;DHT22;23548;51.196;6.838;2022-12-05T18:43:13;1.80;99.90
37702;DHT22;23548;51.196;6.838;2022-12-05T18:45:39;1.90;99.90
37702;DHT22;23548;51.196;6.838;2022-12-05T18:48:05;1.90;99.90
37702;DHT22;23548;51.196;6.838;2022-12-05T18:50:32;1.90;99.90
37702;DHT22;23548;51.196;6.838;2022-12-05T18:53:02;1.80;99.90
37702;DHT22;23548;51.196;6.838;2022-12-05T18:55:33;1.90;99.90
37702;DHT22;23548;51.196;6.838;2022-12-05T18:57:59;1.90;99.90
37702;DHT22;23548;51.196;6.838;2022-12-05T19:00:28;1.90;99.90
37702;DHT22;23548;51.196;6.838;2022-12-05T19:02:55;2.00;99.90
37702;DHT22;23548;51.196;6.838;2022-12-05T19:05:23;2.00;99.90
37702;DHT22;23548;51.196;6.838;2022-12-05T19:07:54;1.90;99.90
37702;DHT22;23548;51.196;6.838;2022-12-05T19:10:22;2.00;99.90
37702;DHT22;23548;51.196;6.838;2022-12-05T19:12:48;1.90;99.90